Time;durP1;ratioP1;P1;durP2;ratioP2;P2;SDS_P1;SDS_P2;PMS_P1;PMS_P2;Temp;Humidity;BMP_temperature;BMP_pressure;BME280_temperature;BME280_humidity;BME280_pressure;Samples;Min_cycle;Max_cycle;Signal;HPM_P1;HPM_P2
2023/03/02 00:00:17;;;;;;;;;;;;;;;-0.18;79.77;102376.05;108925;1256;65509;-81
2023/03/02 00:03:04;;;;;;;;;;;;;;;-0.19;79.91;102377.83;108716;1258;125192;-82
2023/03/02 00:05:32;;;;;;;;;;;;;;;-0.20;79.93;102377.90;108825;1260;59563;-81
2023/03/02 00:07:59;;;;;;;;;;;;;;;-0.24;79.85;102373.11;108780;1256;59915;-81
2023/03/02 00:10:25;;;;;;;;;;;;;;;-0.26;79.74;102373.42;108649;1257;124578;-81
2023/03/02 00:12:52;;;;;;;;;;;;;;;-0.28;79.79;102372.67;108748;1257;65883;-81
2023/03/02 00:15:19;;;;;;;;;;;;;;;-0.31;79.79;102376.25;108677;1257;125751;-82
2023/03/02 00:17:46;;;;;;;;;;;;;;;-0.33;80.04;102379.45;108773;1261;59490;-81
2023/03/02 00:20:13;;;;;;;;;;;;;;;-0.34;80.07;102378.17;108683;1256;126569;-81
2023/03/02 00:22:41;;;;;;;;;;;;;;;-0.35;80.31;102375.30;108739;1256;73358;-81
2023/03/02 00:25:08;;;;;;;;;;;;;;;-0.36;80.37;102376.63;108704;1256;65875;-81
2023/03/02 00:27:35;;;;;;;;;;;;;;;-0.36;80.54;102377.06;108684;1256;125136;-82
2023/03/02 00:30:02;;;;;;;;;;;;;;;-0.36;80.59;102375.54;108815;1256;59337;-82
2023/03/02 00:32:29;;;;;;;;;;;;;;;-0.37;80.62;102371.65;108871;1256;124078;-82
2023/03/02 00:34:57;;;;;;;;;;;;;;;-0.38;80.58;102375.70;108946;1256;75194;-82
2023/03/02 00:37:27;;;;;;;;;;;;;;;-0.41;80.57;102368.77;108648;1257;65739;-82
2023/03/02 00:39:54;;;;;;;;;;;;;;;-0.43;80.78;102369.03;108739;1256;125720;-82
2023/03/02 00:42:21;;;;;;;;;;;;;;;-0.46;80.71;102370.45;108843;1256;59502;-82
2023/03/02 00:44:48;;;;;;;;;;;;;;;-0.49;80.87;102369.98;108709;1257;124657;-82
2023/03/02 00:47:15;;;;;;;;;;;;;;;-0.52;80.88;102367.84;108715;1256;74711;-82
2023/03/02 00:49:47;;;;;;;;;;;;;;;-0.54;80.86;102367.58;108848;1257;66232;-82
2023/03/02 00:52:15;;;;;;;;;;;;;;;-0.57;81.11;102369.71;108849;1256;124532;-82
2023/03/02 00:54:42;;;;;;;;;;;;;;;-0.61;81.14;102370.95;108805;1256;59453;-82
2023/03/02 00:57:09;;;;;;;;;;;;;;;-0.63;81.18;102369.70;108766;1256;125266;-81
2023/03/02 00:59:36;;;;;;;;;;;;;;;-0.65;81.46;102365.01;108923;1256;75123;-82
2023/03/02 01:02:03;;;;;;;;;;;;;;;-0.67;81.42;102361.39;108886;1256;65811;-82
2023/03/02 01:04:34;;;;;;;;;;;;;;;-0.69;81.32;102357.09;108677;1262;125624;-82
2023/03/02 01:07:02;;;;;;;;;;;;;;;-0.70;81.37;102357.66;108838;1260;59385;-82
2023/03/02 01:09:29;;;;;;;;;;;;;;;-0.72;81.51;102352.61;108711;1256;124747;-82
2023/03/02 01:11:56;;;;;;;;;;;;;;;-0.72;81.70;102351.06;108796;1256;75144;-81
2023/03/02 01:14:23;;;;;;;;;;;;;;;-0.73;81.59;102352.77;108759;1256;126473;-81
2023/03/02 01:16:50;;;;;;;;;;;;;;;-0.73;81.61;102350.52;108800;1256;72729;-81
2023/03/02 01:19:17;;;;;;;;;;;;;;;-0.73;81.88;102350.33;108854;1256;59487;-82
2023/03/02 01:21:44;;;;;;;;;;;;;;;-0.72;81.88;102350.07;108710;1256;124950;-82
2023/03/02 01:24:11;;;;;;;;;;;;;;;-0.71;81.96;102350.87;108938;1256;74765;-82
2023/03/02 01:26:37;;;;;;;;;;;;;;;-0.69;81.97;102348.65;108686;1256;126300;-82
2023/03/02 01:29:04;;;;;;;;;;;;;;;-0.67;82.16;102345.38;108918;1257;72757;-82
2023/03/02 01:31:31;;;;;;;;;;;;;;;-0.67;82.08;102340.61;108890;1256;59916;-82
2023/03/02 01:33:58;;;;;;;;;;;;;;;-0.65;82.24;102342.42;108605;1257;124609;-82
2023/03/02 01:36:37;;;;;;;;;;;;;;;-0.66;82.26;102338.30;108855;1256;75780;-82
2023/03/02 01:39:04;;;;;;;;;;;;;;;-0.66;82.35;102333.09;108668;1256;125184;-82
2023/03/02 01:41:31;;;;;;;;;;;;;;;-0.66;82.35;102333.80;108886;1256;73278;-82
2023/03/02 01:43:58;;;;;;;;;;;;;;;-0.65;82.35;102335.98;108766;1256;59767;-82
2023/03/02 01:46:25;;;;;;;;;;;;;;;-0.64;82.36;102335.68;108774;1256;124836;-81
2023/03/02 01:48:52;;;;;;;;;;;;;;;-0.63;82.32;102335.76;108814;1256;75063;-81
2023/03/02 01:51:20;;;;;;;;;;;;;;;-0.63;82.38;102330.60;108840;1256;124765;-81
2023/03/02 01:53:47;;;;;;;;;;;;;;;-0.62;82.36;102332.61;108757;1256;71080;-81
2023/03/02 01:56:21;;;;;;;;;;;;;;;-0.62;82.37;102335.27;108641;1257;124748;-81
2023/03/02 01:58:50;;;;;;;;;;;;;;;-0.63;82.32;102331.30;108874;1256;59611;-81
2023/03/02 02:01:17;;;;;;;;;;;;;;;-0.64;82.37;102330.70;108837;1256;74701;-81
2023/03/02 02:03:44;;;;;;;;;;;;;;;-0.64;82.39;102327.16;108732;1256;125466;-82
2023/03/02 02:06:16;;;;;;;;;;;;;;;-0.65;82.54;102323.33;108867;1256;71422;-82
2023/03/02 02:08:44;;;;;;;;;;;;;;;-0.65;82.50;102321.80;108581;1256;125870;-81
2023/03/02 02:11:11;;;;;;;;;;;;;;;-0.65;82.57;102323.32;108733;1256;60288;-82
2023/03/02 02:13:38;;;;;;;;;;;;;;;-0.65;82.42;102321.61;108791;1256;75196;-82
2023/03/02 02:16:05;;;;;;;;;;;;;;;-0.66;82.57;102316.87;108716;1256;126312;-82
2023/03/02 02:18:36;;;;;;;;;;;;;;;-0.66;82.54;102314.29;108945;1256;71364;-82
2023/03/02 02:21:04;;;;;;;;;;;;;;;-0.65;82.81;102317.30;108715;1256;125349;-81
2023/03/02 02:23:33;;;;;;;;;;;;;;;-0.65;82.82;102315.61;108950;1256;60180;-83
2023/03/02 02:26:19;;;;;;;;;;;;;;;-0.65;82.72;102314.21;108822;1256;76111;-83
2023/03/02 02:28:48;;;;;;;;;;;;;;;-0.65;82.84;102312.33;108887;1256;68473;-83
2023/03/02 02:31:25;;;;;;;;;;;;;;;-0.64;82.86;102311.36;108634;1256;71393;-83
2023/03/02 02:33:53;;;;;;;;;;;;;;;-0.63;82.93;102306.82;108675;1256;125301;-83
2023/03/02 02:36:21;;;;;;;;;;;;;;;-0.63;82.91;102306.32;108859;1256;59216;-82
2023/03/02 02:38:49;;;;;;;;;;;;;;;-0.62;83.08;102305.68;108717;1256;127535;-82
2023/03/02 02:41:20;;;;;;;;;;;;;;;-0.61;83.06;102306.63;108786;1257;65969;-82
2023/03/02 02:43:47;;;;;;;;;;;;;;;-0.61;83.07;102310.97;108688;1256;73328;-82
2023/03/02 02:46:13;;;;;;;;;;;;;;;-0.60;83.09;102307.77;108612;1256;126788;-82
2023/03/02 02:48:40;;;;;;;;;;;;;;;-0.60;83.20;102307.09;108866;1256;59475;-82
2023/03/02 02:51:07;;;;;;;;;;;;;;;-0.59;83.00;102309.73;108757;1256;124855;-82
2023/03/02 02:53:43;;;;;;;;;;;;;;;-0.62;82.96;102308.52;108813;1257;67741;-82
2023/03/02 02:56:10;;;;;;;;;;;;;;;-0.64;82.86;102310.69;108813;1256;72695;-82
2023/03/02 02:58:44;;;;;;;;;;;;;;;-0.66;82.71;102307.17;108650;1256;126187;-82
2023/03/02 03:01:12;;;;;;;;;;;;;;;-0.69;82.93;102309.36;108735;1260;59423;-82
2023/03/02 03:03:39;;;;;;;;;;;;;;;-0.69;82.87;102309.64;108738;1256;124617;-82
2023/03/02 03:06:07;;;;;;;;;;;;;;;-0.70;82.94;102307.83;108850;1260;65754;-82
2023/03/02 03:08:40;;;;;;;;;;;;;;;-0.71;82.93;102307.02;108601;1261;126364;-82
2023/03/02 03:11:07;;;;;;;;;;;;;;;-0.73;82.82;102301.20;108763;1262;59413;-82
2023/03/02 03:13:34;;;;;;;;;;;;;;;-0.74;82.90;102297.83;108804;1256;59270;-82
2023/03/02 03:16:01;;;;;;;;;;;;;;;-0.74;82.94;102299.14;108683;1257;126286;-82
2023/03/02 03:18:31;;;;;;;;;;;;;;;-0.75;82.86;102298.02;108810;1256;67544;-82
2023/03/02 03:20:58;;;;;;;;;;;;;;;-0.76;82.81;102295.52;108740;1256;125095;-82
2023/03/02 03:23:25;;;;;;;;;;;;;;;-0.77;82.84;102296.69;108949;1256;59605;-82
2023/03/02 03:25:52;;;;;;;;;;;;;;;-0.77;82.98;102298.73;108781;1258;60681;-82
2023/03/02 03:28:19;;;;;;;;;;;;;;;-0.76;83.00;102297.60;108834;1257;125540;-82
2023/03/02 03:30:46;;;;;;;;;;;;;;;-0.76;83.15;102297.33;108709;1256;65859;-82
2023/03/02 03:33:13;;;;;;;;;;;;;;;-0.77;82.97;102294.45;108536;1256;126373;-82
2023/03/02 03:35:40;;;;;;;;;;;;;;;-0.78;82.96;102291.42;108795;1260;59487;-82
2023/03/02 03:38:07;;;;;;;;;;;;;;;-0.79;82.88;102292.52;108673;1256;60746;-82
2023/03/02 03:40:34;;;;;;;;;;;;;;;-0.79;82.99;102290.80;108596;1256;125440;-82
2023/03/02 03:43:01;;;;;;;;;;;;;;;-0.80;82.80;102288.09;108915;1257;67578;-82
2023/03/02 03:45:28;;;;;;;;;;;;;;;-0.81;82.88;102290.22;108696;1256;125358;-82
2023/03/02 03:47:55;;;;;;;;;;;;;;;-0.83;82.84;102289.22;108697;1256;59439;-81
2023/03/02 03:50:22;;;;;;;;;;;;;;;-0.84;82.78;102290.38;108644;1256;126560;-81
2023/03/02 03:52:49;;;;;;;;;;;;;;;-0.84;82.73;102290.15;108722;1257;75260;-81
2023/03/02 03:55:16;;;;;;;;;;;;;;;-0.86;82.66;102292.07;108850;1256;67272;-82
2023/03/02 03:57:43;;;;;;;;;;;;;;;-0.86;82.86;102293.40;108772;1256;125152;-81
2023/03/02 04:00:13;;;;;;;;;;;;;;;-0.88;82.82;102288.23;108885;1256;59961;-82
2023/03/02 04:02:40;;;;;;;;;;;;;;;-0.89;82.84;102286.08;108677;1256;125496;-82
2023/03/02 04:05:07;;;;;;;;;;;;;;;-0.89;82.98;102283.86;108787;1256;74710;-82
2023/03/02 04:07:34;;;;;;;;;;;;;;;-0.89;82.88;102284.96;108907;1256;67506;-82
2023/03/02 04:10:02;;;;;;;;;;;;;;;-0.89;83.20;102283.34;108653;1256;124999;-82
2023/03/02 04:12:29;;;;;;;;;;;;;;;-0.89;83.03;102279.20;108851;1256;60199;-82
2023/03/02 04:14:56;;;;;;;;;;;;;;;-0.88;82.93;102276.10;108724;1259;125900;-82
2023/03/02 04:17:23;;;;;;;;;;;;;;;-0.87;83.26;102277.25;108799;1256;73354;-82
2023/03/02 04:19:50;;;;;;;;;;;;;;;-0.87;83.05;102273.88;108810;1259;69158;-82
2023/03/02 04:22:18;;;;;;;;;;;;;;;-0.87;83.20;102277.59;108682;1256;124906;-82
2023/03/02 04:24:46;;;;;;;;;;;;;;;-0.86;83.16;102276.98;108749;1258;59219;-82
2023/03/02 04:27:13;;;;;;;;;;;;;;;-0.86;83.31;102272.70;108597;1256;126805;-82
2023/03/02 04:29:40;;;;;;;;;;;;;;;-0.86;83.20;102267.77;108831;1256;72472;-81
2023/03/02 04:32:07;;;;;;;;;;;;;;;-0.85;83.23;102267.13;108730;1256;67690;-82
2023/03/02 04:34:33;;;;;;;;;;;;;;;-0.85;83.21;102263.32;108771;1256;125101;-81
2023/03/02 04:37:00;;;;;;;;;;;;;;;-0.85;83.01;102266.58;108901;1256;59873;-82
2023/03/02 04:39:27;;;;;;;;;;;;;;;-0.85;83.08;102265.21;108721;1256;125234;-81
2023/03/02 04:41:54;;;;;;;;;;;;;;;-0.86;83.22;102264.96;108754;1257;74690;-82
2023/03/02 04:44:21;;;;;;;;;;;;;;;-0.87;83.27;102263.70;108784;1256;126097;-82
2023/03/02 04:46:48;;;;;;;;;;;;;;;-0.87;83.16;102261.08;108894;1256;71092;-82
2023/03/02 04:49:15;;;;;;;;;;;;;;;-0.88;83.17;102259.98;108942;1256;59392;-82
2023/03/02 04:51:43;;;;;;;;;;;;;;;-0.87;83.16;102254.55;108688;1256;125223;-82
2023/03/02 04:54:20;;;;;;;;;;;;;;;-0.86;83.20;102251.50;108739;1256;75248;-83
2023/03/02 04:56:47;;;;;;;;;;;;;;;-0.86;83.20;102252.38;108662;1256;125571;-82
2023/03/02 04:59:15;;;;;;;;;;;;;;;-0.86;83.16;102255.30;108755;1256;72747;-81
2023/03/02 05:01:43;;;;;;;;;;;;;;;-0.87;83.14;102254.90;108898;1256;59587;-81
2023/03/02 05:04:10;;;;;;;;;;;;;;;-0.88;83.22;102255.61;108800;1256;125935;-82
2023/03/02 05:06:37;;;;;;;;;;;;;;;-0.89;82.97;102261.27;108772;1256;73742;-81
2023/03/02 05:09:03;;;;;;;;;;;;;;;-0.89;83.11;102257.08;108765;1256;125060;-81
2023/03/02 05:11:30;;;;;;;;;;;;;;;-0.89;82.94;102254.17;108711;1256;70428;-82
2023/03/02 05:13:58;;;;;;;;;;;;;;;-0.89;83.14;102251.42;108727;1256;59523;-82
2023/03/02 05:16:25;;;;;;;;;;;;;;;-0.89;83.08;102256.77;108574;1259;125969;-80
2023/03/02 05:18:52;;;;;;;;;;;;;;;-0.87;83.15;102257.77;108921;1256;73582;-81
2023/03/02 05:21:19;;;;;;;;;;;;;;;-0.87;83.13;102256.09;108812;1256;126500;-80
2023/03/02 05:23:46;;;;;;;;;;;;;;;-0.86;83.07;102259.14;108797;1256;73010;-82
2023/03/02 05:26:13;;;;;;;;;;;;;;;-0.85;83.01;102259.86;108508;1256;125942;-81
2023/03/02 05:28:40;;;;;;;;;;;;;;;-0.84;83.29;102262.06;108846;1256;59794;-81
2023/03/02 05:31:07;;;;;;;;;;;;;;;-0.82;82.99;102261.61;108888;1256;74454;-81
2023/03/02 05:33:36;;;;;;;;;;;;;;;-0.80;82.94;102264.02;108749;1257;125467;-81
2023/03/02 05:36:03;;;;;;;;;;;;;;;-0.77;82.97;102265.10;108716;1256;71411;-81
2023/03/02 05:38:30;;;;;;;;;;;;;;;-0.75;83.05;102260.79;108700;1257;125906;-81
2023/03/02 05:40:57;;;;;;;;;;;;;;;-0.73;83.08;102257.60;108936;1256;59358;-81
2023/03/02 05:43:28;;;;;;;;;;;;;;;-0.70;82.87;102254.22;108736;1257;73324;-83
2023/03/02 05:45:59;;;;;;;;;;;;;;;-0.68;83.02;102254.63;108025;1256;124771;-82
2023/03/02 05:48:26;;;;;;;;;;;;;;;-0.65;82.93;102252.52;108047;1256;71658;-82
2023/03/02 05:50:53;;;;;;;;;;;;;;;-0.61;82.99;102255.96;107994;1256;124964;-82
2023/03/02 05:53:20;;;;;;;;;;;;;;;-0.57;82.78;102255.79;107853;1256;61280;-80
2023/03/02 05:55:47;;;;;;;;;;;;;;;-0.54;82.72;102250.42;107867;1256;75141;-81
2023/03/02 05:58:15;;;;;;;;;;;;;;;-0.49;82.91;102249.52;107692;1256;125244;-82
2023/03/02 06:01:15;;;;;;;;;;;;;;;-0.44;82.69;102240.29;107778;1256;72412;-82
2023/03/02 06:07:41;;;;;;;;;;;;;;;-0.31;82.64;102239.61;107904;1256;60188;-80
2023/03/02 06:10:08;;;;;;;;;;;;;;;-0.27;82.43;102238.23;107495;1256;125665;-81
2023/03/02 06:12:38;;;;;;;;;;;;;;;-0.22;82.47;102240.23;107357;1256;67204;-82
2023/03/02 06:15:05;;;;;;;;;;;;;;;-0.17;82.71;102239.13;107163;1261;125173;-82
2023/03/02 06:17:32;;;;;;;;;;;;;;;-0.11;82.47;102241.71;107348;1256;61232;-81
2023/03/02 06:20:32;;;;;;;;;;;;;;;-0.07;82.22;102244.41;107506;1258;61227;-93
2023/03/02 06:23:06;;;;;;;;;;;;;;;-0.02;82.18;102245.23;107713;1256;74707;-80
2023/03/02 06:25:36;;;;;;;;;;;;;;;0.03;82.23;102246.17;108077;1256;66442;-81
2023/03/02 06:28:03;;;;;;;;;;;;;;;0.07;82.05;102244.48;107802;1256;124346;-81
2023/03/02 06:30:30;;;;;;;;;;;;;;;0.11;82.09;102238.98;108058;1256;59436;-81
2023/03/02 06:32:58;;;;;;;;;;;;;;;0.15;81.97;102241.40;107892;1259;125904;-81
2023/03/02 06:35:45;;;;;;;;;;;;;;;0.17;81.97;102242.48;107815;1259;74702;-80
2023/03/02 06:38:14;;;;;;;;;;;;;;;0.21;81.80;102243.46;107769;1256;66679;-81
2023/03/02 06:40:41;;;;;;;;;;;;;;;0.23;81.66;102239.47;107417;1256;126031;-81
2023/03/02 06:43:14;;;;;;;;;;;;;;;0.26;81.83;102235.80;107601;1264;61118;-80
2023/03/02 06:46:20;;;;;;;;;;;;;;;0.31;81.73;102241.63;107236;1256;126309;-81
2023/03/02 06:49:05;;;;;;;;;;;;;;;0.37;81.74;102238.89;107390;1256;76135;-80
2023/03/02 06:51:31;;;;;;;;;;;;;;;0.43;81.57;102240.96;107487;1265;124617;-80
2023/03/02 06:53:58;;;;;;;;;;;;;;;0.49;81.50;102241.85;107882;1256;71400;-81
2023/03/02 06:56:25;;;;;;;;;;;;;;;0.54;81.53;102242.10;107589;1256;125419;-80
2023/03/02 06:58:55;;;;;;;;;;;;;;;0.60;81.43;102244.02;107636;1258;59626;-80
2023/03/02 07:01:56;;;;;;;;;;;;;;;;;;;;;
2023/03/02 07:05:04;;;;;;;;;;;;;;;0.73;81.35;102238.40;107205;1263;124630;-81
2023/03/02 07:07:31;;;;;;;;;;;;;;;0.82;81.31;102237.79;106889;1268;71051;-80
2023/03/02 07:10:16;;;;;;;;;;;;;;;0.88;81.15;102238.15;107403;1261;126668;-80
2023/03/02 07:12:44;;;;;;;;;;;;;;;0.96;81.13;102238.87;107421;1256;61118;-81
2023/03/02 07:15:12;;;;;;;;;;;;;;;1.03;81.17;102235.52;107652;1262;125638;-80
2023/03/02 07:17:40;;;;;;;;;;;;;;;1.11;81.08;102234.61;107748;1262;67922;-80
2023/03/02 07:20:07;;;;;;;;;;;;;;;1.19;81.10;102235.37;107962;1256;71049;-80
2023/03/02 07:22:35;;;;;;;;;;;;;;;1.29;80.99;102235.47;107707;1257;125036;-80
2023/03/02 07:25:02;;;;;;;;;;;;;;;1.35;80.93;102233.48;107999;1259;59662;-80
2023/03/02 07:27:29;;;;;;;;;;;;;;;1.44;80.84;102234.02;107869;1256;126163;-80
2023/03/02 07:29:55;;;;;;;;;;;;;;;1.53;80.66;102236.88;107976;1256;66069;-80
2023/03/02 07:32:22;;;;;;;;;;;;;;;1.63;80.67;102238.04;107908;1256;72859;-79
2023/03/02 07:34:49;;;;;;;;;;;;;;;1.72;80.53;102234.30;107626;1265;124217;-82
2023/03/02 07:37:16;;;;;;;;;;;;;;;1.82;80.37;102236.66;107684;1257;61257;-79
2023/03/02 07:39:43;;;;;;;;;;;;;;;1.89;80.40;102236.44;107909;1257;124698;-79
2023/03/02 07:42:10;;;;;;;;;;;;;;;1.96;80.03;102239.45;107649;1256;67240;-81
2023/03/02 07:44:37;;;;;;;;;;;;;;;2.04;80.07;102240.59;107573;1256;125234;-82
2023/03/02 07:47:04;;;;;;;;;;;;;;;2.10;80.06;102244.62;107835;1257;61170;-81
2023/03/02 07:49:31;;;;;;;;;;;;;;;2.17;79.76;102248.11;107871;1256;61541;-79
2023/03/02 07:51:58;;;;;;;;;;;;;;;2.24;79.81;102244.17;107470;1256;123926;-80
2023/03/02 07:54:26;;;;;;;;;;;;;;;2.31;79.49;102238.31;107452;1256;65868;-80
2023/03/02 07:56:53;;;;;;;;;;;;;;;2.38;79.32;102238.95;107359;1256;124619;-79
2023/03/02 07:59:20;;;;;;;;;;;;;;;2.45;79.23;102233.02;107546;1257;59555;-79
2023/03/02 08:01:47;;;;;;;;;;;;;;;2.50;79.00;102236.59;107462;1256;61308;-80
2023/03/02 08:04:14;;;;;;;;;;;;;;;2.54;78.80;102234.53;107068;1262;124795;-80
2023/03/02 08:06:40;;;;;;;;;;;;;;;2.59;78.77;102233.48;107714;1256;67357;-80
2023/03/02 08:09:07;;;;;;;;;;;;;;;2.63;78.54;102228.98;107733;1256;125262;-80
2023/03/02 08:11:34;;;;;;;;;;;;;;;2.68;78.40;102233.92;107895;1256;60237;-80
2023/03/02 08:14:01;;;;;;;;;;;;;;;2.75;78.34;102233.77;107972;1257;61248;-80
2023/03/02 08:16:28;;;;;;;;;;;;;;;2.81;78.23;102233.90;107794;1256;125236;-80
2023/03/02 08:18:55;;;;;;;;;;;;;;;2.88;78.11;102231.02;107717;1257;66030;-82
2023/03/02 08:21:23;;;;;;;;;;;;;;;2.97;78.12;102229.96;107347;1261;125466;-81
2023/03/02 08:23:49;;;;;;;;;;;;;;;3.05;77.86;102225.76;107651;1261;59586;-80
2023/03/02 08:26:17;;;;;;;;;;;;;;;3.14;77.82;102224.86;107635;1256;61240;-80
2023/03/02 08:28:44;;;;;;;;;;;;;;;3.21;77.74;102222.51;107670;1256;125761;-80
2023/03/02 08:31:11;;;;;;;;;;;;;;;3.30;77.58;102224.54;108092;1256;66185;-80
2023/03/02 08:33:38;;;;;;;;;;;;;;;3.38;77.43;102218.10;107807;1256;125725;-81
2023/03/02 08:36:05;;;;;;;;;;;;;;;3.46;77.31;102216.27;107915;1256;59667;-80
2023/03/02 08:38:33;;;;;;;;;;;;;;;3.53;77.22;102214.36;107325;1256;125193;-80
2023/03/02 08:41:03;;;;;;;;;;;;;;;3.61;77.21;102216.21;107442;1256;75728;-80
2023/03/02 08:43:30;;;;;;;;;;;;;;;3.68;77.06;102215.90;107504;1256;65602;-80
2023/03/02 08:45:57;;;;;;;;;;;;;;;3.77;76.99;102212.02;107356;1257;124168;-81
2023/03/02 08:48:25;;;;;;;;;;;;;;;3.84;76.90;102212.38;107687;1257;59525;-80
2023/03/02 08:50:55;;;;;;;;;;;;;;;3.89;76.68;102209.65;107342;1256;125292;-81
2023/03/02 08:53:22;;;;;;;;;;;;;;;3.94;76.42;102207.77;107927;1260;74705;-82
2023/03/02 08:55:49;;;;;;;;;;;;;;;3.99;76.30;102208.83;107745;1257;67086;-82
2023/03/02 08:58:16;;;;;;;;;;;;;;;4.04;76.28;102207.27;107298;1256;124470;-82
2023/03/02 09:00:43;;;;;;;;;;;;;;;4.09;76.27;102211.66;107447;1257;61285;-82
2023/03/02 09:03:27;;;;;;;;;;;;;;;4.14;76.03;102214.63;107263;1262;124543;-83
2023/03/02 09:06:02;;;;;;;;;;;;;;;4.20;75.85;102214.34;107587;1256;74945;-82
2023/03/02 09:08:29;;;;;;;;;;;;;;;4.23;75.73;102217.41;107659;1256;65753;-80
2023/03/02 09:10:56;;;;;;;;;;;;;;;4.26;75.58;102213.11;107369;1256;123447;-82
2023/03/02 09:13:23;;;;;;;;;;;;;;;4.32;75.50;102216.06;107922;1257;61420;-81
2023/03/02 09:15:50;;;;;;;;;;;;;;;4.36;75.42;102209.80;108049;1256;125639;-81
2023/03/02 09:18:16;;;;;;;;;;;;;;;4.43;75.33;102209.07;107819;1256;74643;-81
2023/03/02 09:20:43;;;;;;;;;;;;;;;4.49;75.18;102205.34;107431;1257;124715;-81
2023/03/02 09:23:12;;;;;;;;;;;;;;;4.54;74.95;102205.69;107519;1260;72655;-81
2023/03/02 09:25:39;;;;;;;;;;;;;;;4.59;74.98;102200.37;107303;1259;61291;-81
2023/03/02 09:28:06;;;;;;;;;;;;;;;4.68;74.95;102205.52;107547;1262;124769;-81
2023/03/02 09:30:33;;;;;;;;;;;;;;;4.76;74.93;102204.73;107788;1256;74673;-81
2023/03/02 09:33:00;;;;;;;;;;;;;;;4.84;74.71;102203.36;107726;1257;125373;-81
2023/03/02 09:35:27;;;;;;;;;;;;;;;4.91;74.64;102201.05;107629;1256;73396;-81
2023/03/02 09:37:54;;;;;;;;;;;;;;;4.97;74.51;102203.39;107752;1259;61225;-81
2023/03/02 09:40:22;;;;;;;;;;;;;;;5.03;74.35;102204.05;107596;1256;185616;-81
2023/03/02 09:42:53;;;;;;;;;;;;;;;5.10;74.38;102204.14;107676;1262;74552;-82
2023/03/02 09:45:28;;;;;;;;;;;;;;;5.17;74.24;102203.57;107394;1256;125569;-81
2023/03/02 09:47:58;;;;;;;;;;;;;;;5.23;74.15;102201.80;107759;1257;72097;-81
2023/03/02 09:50:28;;;;;;;;;;;;;;;5.30;73.94;102196.65;107967;1256;61117;-82
2023/03/02 09:53:04;;;;;;;;;;;;;;;5.36;73.90;102197.26;107801;1260;124383;-82
2023/03/02 09:55:31;;;;;;;;;;;;;;;5.39;73.69;102194.17;107889;1256;74431;-81
2023/03/02 09:58:01;;;;;;;;;;;;;;;5.43;73.74;102192.52;107873;1257;124400;-81
2023/03/02 10:00:29;;;;;;;;;;;;;;;5.49;73.63;102189.80;107434;1261;72882;-81
2023/03/02 10:03:00;;;;;;;;;;;;;;;5.54;73.51;102184.02;107340;1256;124050;-81
2023/03/02 10:05:34;;;;;;;;;;;;;;;5.59;73.48;102189.43;107488;1256;61269;-81
2023/03/02 10:08:01;;;;;;;;;;;;;;;5.62;73.30;102190.72;107611;1256;73658;-81
2023/03/02 10:10:33;;;;;;;;;;;;;;;5.66;73.14;102193.91;107555;1258;124218;-81
2023/03/02 10:13:18;;;;;;;;;;;;;;;5.70;72.91;102195.92;107553;1257;71505;-82
2023/03/02 10:15:57;;;;;;;;;;;;;;;5.72;72.74;102196.07;107749;1262;124654;-81
2023/03/02 10:18:38;;;;;;;;;;;;;;;5.74;72.70;102190.30;107834;1260;61143;-81
2023/03/02 10:21:10;;;;;;;;;;;;;;;5.78;72.65;102184.30;107595;1256;125706;-81
2023/03/02 10:23:40;;;;;;;;;;;;;;;5.82;72.56;102182.27;107609;1256;65586;-81
2023/03/02 10:26:10;;;;;;;;;;;;;;;5.84;72.46;102180.17;108036;1256;71869;-81
2023/03/02 10:28:39;;;;;;;;;;;;;;;5.85;72.29;102181.98;107895;1258;124341;-81
2023/03/02 10:31:11;;;;;;;;;;;;;;;5.89;72.20;102177.83;108827;1257;60007;-80
2023/03/02 10:33:38;;;;;;;;;;;;;;;5.93;72.29;102173.96;108705;1257;125551;-81
2023/03/02 10:36:11;;;;;;;;;;;;;;;6.00;72.27;102174.45;108813;1262;67039;-82
2023/03/02 10:38:39;;;;;;;;;;;;;;;6.06;72.26;102171.21;108719;1256;125754;-81
2023/03/02 10:41:07;;;;;;;;;;;;;;;6.13;72.25;102170.79;108752;1257;59618;-81
2023/03/02 10:43:54;;;;;;;;;;;;;;;6.20;72.03;102167.91;108777;1261;60142;-81
2023/03/02 10:46:23;;;;;;;;;;;;;;;6.28;72.09;102166.88;108565;1257;125736;-81
2023/03/02 10:48:54;;;;;;;;;;;;;;;6.38;72.05;102171.74;108703;1261;67855;-81
2023/03/02 10:51:28;;;;;;;;;;;;;;;6.45;71.57;102169.52;108738;1260;125159;-81
2023/03/02 10:54:21;;;;;;;;;;;;;;;6.50;71.21;102161.96;108760;1256;59124;-81
2023/03/02 10:56:52;;;;;;;;;;;;;;;6.54;70.84;102163.13;108825;1256;125226;-82
2023/03/02 10:59:39;;;;;;;;;;;;;;;6.58;70.73;102162.56;108904;1260;73949;-81
2023/03/02 11:02:17;;;;;;;;;;;;;;;6.65;70.73;102159.46;109008;1256;67089;-80
2023/03/02 11:04:46;;;;;;;;;;;;;;;6.72;70.73;102156.94;108748;1256;124848;-81
2023/03/02 11:07:18;;;;;;;;;;;;;;;6.79;70.53;102155.45;108678;1256;59287;-82
2023/03/02 11:09:59;;;;;;;;;;;;;;;6.84;70.60;102157.18;108808;1272;123780;-82
2023/03/02 11:12:37;;;;;;;;;;;;;;;6.86;70.12;102154.85;108985;1257;73706;-82
2023/03/02 11:15:23;;;;;;;;;;;;;;;6.87;70.02;102149.48;108883;1260;124931;-82
2023/03/02 11:18:12;;;;;;;;;;;;;;;6.85;69.99;102146.38;108974;1257;72666;-82
2023/03/02 11:21:00;;;;;;;;;;;;;;;6.79;70.03;102142.24;108718;1262;125790;-82
2023/03/02 11:23:46;;;;;;;;;;;;;;;6.77;70.15;102137.73;108850;1256;59379;-82
2023/03/02 11:26:16;;;;;;;;;;;;;;;6.77;70.06;102132.35;108895;1260;73437;-82
2023/03/02 11:29:01;;;;;;;;;;;;;;;6.80;70.01;102129.35;108822;1275;123698;-82
2023/03/02 11:31:28;;;;;;;;;;;;;;;6.84;69.67;102125.94;108875;1257;72007;-81
2023/03/02 11:33:58;;;;;;;;;;;;;;;6.87;69.37;102125.05;108836;1260;124072;-81
2023/03/02 11:36:45;;;;;;;;;;;;;;;6.89;69.37;102119.95;108963;1257;60486;-81
2023/03/02 11:39:22;;;;;;;;;;;;;;;6.94;69.13;102116.41;108792;1256;124968;-82
2023/03/02 11:41:49;;;;;;;;;;;;;;;6.95;68.75;102114.56;108894;1258;67862;-82
2023/03/02 11:44:16;;;;;;;;;;;;;;;6.97;68.72;102118.02;108920;1257;72696;-82
2023/03/02 11:46:58;;;;;;;;;;;;;;;6.99;68.68;102115.16;108663;1261;125277;-81
2023/03/02 11:49:52;;;;;;;;;;;;;;;6.99;68.57;102112.23;108807;1262;59236;-81
2023/03/02 11:52:22;;;;;;;;;;;;;;;7.01;68.40;102110.94;108346;1266;124938;-81
2023/03/02 11:55:12;;;;;;;;;;;;;;;6.99;67.92;102111.17;108474;1262;65790;-81
2023/03/02 11:57:39;;;;;;;;;;;;;;;6.97;67.90;102109.48;108249;1267;124397;-81
2023/03/02 12:00:11;;;;;;;;;;;;;;;6.96;67.97;102103.14;108344;1264;59826;-81
2023/03/02 12:02:38;;;;;;;;;;;;;;;6.96;67.68;102104.58;108244;1264;123934;-82
2023/03/02 12:05:06;;;;;;;;;;;;;;;6.97;67.75;102097.96;108386;1263;74115;-81
2023/03/02 12:07:34;;;;;;;;;;;;;;;7.01;67.66;102097.66;108478;1264;67009;-81
2023/03/02 12:10:05;;;;;;;;;;;;;;;7.02;67.55;102094.43;108224;1263;123965;-81
2023/03/02 12:12:33;;;;;;;;;;;;;;;7.06;67.50;102093.81;108342;1268;59630;-81
2023/03/02 12:15:00;;;;;;;;;;;;;;;7.05;66.96;102093.73;108254;1271;125585;-82
2023/03/02 12:17:28;;;;;;;;;;;;;;;7.03;67.01;102079.45;108359;1264;72427;-81
2023/03/02 12:20:09;;;;;;;;;;;;;;;7.05;67.07;102079.57;108464;1267;67869;-82
2023/03/02 12:22:36;;;;;;;;;;;;;;;7.08;66.92;102077.48;108248;1263;124541;-81
2023/03/02 12:25:23;;;;;;;;;;;;;;;7.10;66.81;102073.92;108429;1268;60586;-82
2023/03/02 12:27:50;;;;;;;;;;;;;;;7.11;66.82;102070.88;108269;1263;125151;-81
2023/03/02 12:30:22;;;;;;;;;;;;;;;7.13;66.92;102068.52;108897;1257;73940;-82
2023/03/02 12:33:04;;;;;;;;;;;;;;;7.12;66.81;102065.72;108705;1258;124210;-82
2023/03/02 12:35:32;;;;;;;;;;;;;;;7.10;66.60;102063.80;108970;1260;71811;-81
2023/03/02 12:37:59;;;;;;;;;;;;;;;7.08;66.57;102061.41;109014;1260;59122;-82
2023/03/02 12:40:39;;;;;;;;;;;;;;;7.05;66.44;102060.19;108938;1256;124285;-82
2023/03/02 12:43:11;;;;;;;;;;;;;;;7.03;66.37;102056.45;108838;1257;74120;-81
2023/03/02 12:45:57;;;;;;;;;;;;;;;7.02;66.34;102058.30;108876;1257;125520;-81